sensor_id;sensor_type;location;lat;lon;timestamp;pressure;altitude;pressure_sealevel;temperature;humidity
52651;BME280;38537;47.226;39.702;2023-05-14T00:00:58;100877.53;;;15.60;44.86
52651;BME280;38537;47.226;39.702;2023-05-14T00:03:27;100889.31;;;15.70;44.98
52651;BME280;38537;47.226;39.702;2023-05-14T00:05:56;100856.53;;;15.57;44.86
52651;BME280;38537;47.226;39.702;2023-05-14T00:08:24;100877.72;;;15.72;45.41
52651;BME280;38537;47.226;39.702;2023-05-14T00:10:51;100858.66;;;15.60;44.68
52651;BME280;38537;47.226;39.702;2023-05-14T00:13:19;100886.66;;;15.74;45.33
52651;BME280;38537;47.226;39.702;2023-05-14T00:15:46;100876.03;;;15.62;45.68
52651;BME280;38537;47.226;39.702;2023-05-14T00:18:14;100874.56;;;15.56;45.92
52651;BME280;38537;47.226;39.702;2023-05-14T00:20:41;100867.41;;;15.50;46.05
52651;BME280;38537;47.226;39.702;2023-05-14T00:23:09;100874.50;;;15.48;46.12
52651;BME280;38537;47.226;39.702;2023-05-14T00:25:36;100867.19;;;15.38;45.99
52651;BME280;38537;47.226;39.702;2023-05-14T00:28:04;100891.97;;;15.58;45.93
52651;BME280;38537;47.226;39.702;2023-05-14T00:30:31;100883.63;;;15.53;45.98
52651;BME280;38537;47.226;39.702;2023-05-14T00:33:02;100859.59;;;15.30;46.21
52651;BME280;38537;47.226;39.702;2023-05-14T00:35:29;100860.38;;;15.22;46.35
52651;BME280;38537;47.226;39.702;2023-05-14T00:37:57;100885.09;;;15.33;46.38
52651;BME280;38537;47.226;39.702;2023-05-14T00:40:26;100896.34;;;15.42;45.98
52651;BME280;38537;47.226;39.702;2023-05-14T00:42:54;100859.09;;;15.28;45.85
52651;BME280;38537;47.226;39.702;2023-05-14T00:45:21;100871.34;;;15.40;45.08
52651;BME280;38537;47.226;39.702;2023-05-14T00:47:49;100874.19;;;15.49;44.91
52651;BME280;38537;47.226;39.702;2023-05-14T00:50:17;100881.03;;;15.57;44.91
52651;BME280;38537;47.226;39.702;2023-05-14T00:52:45;100876.56;;;15.56;44.56
52651;BME280;38537;47.226;39.702;2023-05-14T00:55:14;100890.97;;;15.71;44.30
52651;BME280;38537;47.226;39.702;2023-05-14T00:57:43;100891.31;;;15.79;43.87
52651;BME280;38537;47.226;39.702;2023-05-14T01:00:11;100877.53;;;15.68;43.74
52651;BME280;38537;47.226;39.702;2023-05-14T01:02:38;100894.78;;;15.84;43.33
52651;BME280;38537;47.226;39.702;2023-05-14T01:05:06;100884.84;;;15.87;43.22
52651;BME280;38537;47.226;39.702;2023-05-14T01:07:48;100879.72;;;15.89;43.05
52651;BME280;38537;47.226;39.702;2023-05-14T01:10:28;100870.75;;;15.87;43.24
52651;BME280;38537;47.226;39.702;2023-05-14T01:13:03;100884.34;;;15.93;43.03
52651;BME280;38537;47.226;39.702;2023-05-14T01:15:36;100881.38;;;15.90;42.76
52651;BME280;38537;47.226;39.702;2023-05-14T01:18:13;100879.88;;;15.92;42.82
52651;BME280;38537;47.226;39.702;2023-05-14T01:20:44;100866.44;;;15.81;42.97
52651;BME280;38537;47.226;39.702;2023-05-14T01:23:12;100811.25;;;15.45;43.13
52651;BME280;38537;47.226;39.702;2023-05-14T01:25:39;100868.78;;;15.79;43.02
52651;BME280;38537;47.226;39.702;2023-05-14T01:28:17;100892.47;;;15.86;43.21
52651;BME280;38537;47.226;39.702;2023-05-14T01:31:07;100878.72;;;15.85;42.98
52651;BME280;38537;47.226;39.702;2023-05-14T01:33:41;100855.00;;;15.60;43.37
52651;BME280;38537;47.226;39.702;2023-05-14T01:36:09;100869.59;;;15.62;43.59
52651;BME280;38537;47.226;39.702;2023-05-14T01:38:37;100861.31;;;15.57;43.59
52651;BME280;38537;47.226;39.702;2023-05-14T01:41:05;100874.22;;;15.66;43.28
52651;BME280;38537;47.226;39.702;2023-05-14T01:43:33;100894.28;;;15.73;43.43
52651;BME280;38537;47.226;39.702;2023-05-14T01:46:01;100861.81;;;15.59;43.39
52651;BME280;38537;47.226;39.702;2023-05-14T01:48:31;100874.56;;;15.65;43.35
52651;BME280;38537;47.226;39.702;2023-05-14T01:50:58;100874.72;;;15.68;43.26
52651;BME280;38537;47.226;39.702;2023-05-14T01:53:26;100871.91;;;15.68;43.20
52651;BME280;38537;47.226;39.702;2023-05-14T01:55:54;100887.50;;;15.74;43.24
52651;BME280;38537;47.226;39.702;2023-05-14T01:58:21;100875.22;;;15.70;43.38
52651;BME280;38537;47.226;39.702;2023-05-14T02:00:49;100886.34;;;15.75;43.99
52651;BME280;38537;47.226;39.702;2023-05-14T02:03:16;100887.81;;;15.82;43.26
52651;BME280;38537;47.226;39.702;2023-05-14T02:05:43;100891.47;;;15.82;43.50
52651;BME280;38537;47.226;39.702;2023-05-14T02:08:12;100871.56;;;15.61;43.33
52651;BME280;38537;47.226;39.702;2023-05-14T02:10:39;100870.09;;;15.64;43.85
52651;BME280;38537;47.226;39.702;2023-05-14T02:13:07;100872.72;;;15.60;44.24
52651;BME280;38537;47.226;39.702;2023-05-14T02:15:35;100871.88;;;15.51;44.04
52651;BME280;38537;47.226;39.702;2023-05-14T02:18:04;100880.31;;;15.51;44.08
52651;BME280;38537;47.226;39.702;2023-05-14T02:20:32;100883.00;;;15.56;43.74
52651;BME280;38537;47.226;39.702;2023-05-14T02:22:59;100893.75;;;15.63;43.78
52651;BME280;38537;47.226;39.702;2023-05-14T02:25:28;100898.59;;;15.71;43.54
52651;BME280;38537;47.226;39.702;2023-05-14T02:27:55;100893.94;;;15.66;42.91
52651;BME280;38537;47.226;39.702;2023-05-14T02:30:23;100892.13;;;15.70;43.54
52651;BME280;38537;47.226;39.702;2023-05-14T02:32:52;100897.59;;;15.75;43.27
52651;BME280;38537;47.226;39.702;2023-05-14T02:35:23;100881.53;;;15.67;43.02
52651;BME280;38537;47.226;39.702;2023-05-14T02:37:50;100865.28;;;15.64;42.70
52651;BME280;38537;47.226;39.702;2023-05-14T02:40:18;100900.59;;;15.88;42.93
52651;BME280;38537;47.226;39.702;2023-05-14T02:42:46;100870.75;;;15.69;42.60
52651;BME280;38537;47.226;39.702;2023-05-14T02:45:13;100882.53;;;15.71;42.86
52651;BME280;38537;47.226;39.702;2023-05-14T02:47:42;100876.88;;;15.63;43.45
52651;BME280;38537;47.226;39.702;2023-05-14T02:50:12;100865.59;;;15.54;43.58
52651;BME280;38537;47.226;39.702;2023-05-14T02:52:46;100836.94;;;15.35;43.78
52651;BME280;38537;47.226;39.702;2023-05-14T02:55:17;100877.06;;;15.58;43.54
52651;BME280;38537;47.226;39.702;2023-05-14T02:58:05;100885.28;;;15.54;43.65
52651;BME280;38537;47.226;39.702;2023-05-14T03:00:43;100851.81;;;15.27;43.74
52651;BME280;38537;47.226;39.702;2023-05-14T03:03:14;100811.03;;;14.98;44.22
52651;BME280;38537;47.226;39.702;2023-05-14T03:05:42;100863.53;;;15.20;44.49
52651;BME280;38537;47.226;39.702;2023-05-14T03:08:13;100797.56;;;14.69;44.53
52651;BME280;38537;47.226;39.702;2023-05-14T03:10:45;100850.56;;;14.93;44.44
52651;BME280;38537;47.226;39.702;2023-05-14T03:13:14;100903.75;;;15.21;45.32
52651;BME280;38537;47.226;39.702;2023-05-14T03:15:44;100882.84;;;15.04;44.90
52651;BME280;38537;47.226;39.702;2023-05-14T03:18:13;100891.16;;;15.09;45.25
52651;BME280;38537;47.226;39.702;2023-05-14T03:20:41;100900.75;;;15.17;45.10
52651;BME280;38537;47.226;39.702;2023-05-14T03:23:09;100893.13;;;15.09;45.09
52651;BME280;38537;47.226;39.702;2023-05-14T03:25:37;100899.25;;;15.11;45.26
52651;BME280;38537;47.226;39.702;2023-05-14T03:28:06;100899.22;;;15.02;45.02
52651;BME280;38537;47.226;39.702;2023-05-14T03:30:33;100908.34;;;15.08;45.27
52651;BME280;38537;47.226;39.702;2023-05-14T03:33:00;100914.16;;;15.12;45.30
52651;BME280;38537;47.226;39.702;2023-05-14T03:35:28;100891.94;;;15.01;45.01
52651;BME280;38537;47.226;39.702;2023-05-14T03:37:55;100897.41;;;15.06;45.16
52651;BME280;38537;47.226;39.702;2023-05-14T03:40:25;100926.47;;;15.33;45.37
52651;BME280;38537;47.226;39.702;2023-05-14T03:42:53;100934.25;;;15.36;45.51
52651;BME280;38537;47.226;39.702;2023-05-14T03:45:21;100931.09;;;15.37;45.64
52651;BME280;38537;47.226;39.702;2023-05-14T03:47:48;100906.75;;;15.24;45.42
52651;BME280;38537;47.226;39.702;2023-05-14T03:50:16;100921.16;;;15.31;45.73
52651;BME280;38537;47.226;39.702;2023-05-14T03:52:44;100929.47;;;15.36;45.51
52651;BME280;38537;47.226;39.702;2023-05-14T03:55:11;100939.75;;;15.50;45.39
52651;BME280;38537;47.226;39.702;2023-05-14T03:57:41;100919.19;;;15.40;45.23
52651;BME280;38537;47.226;39.702;2023-05-14T04:00:10;100922.03;;;15.49;45.65
52651;BME280;38537;47.226;39.702;2023-05-14T04:02:43;100929.84;;;15.61;45.61
52651;BME280;38537;47.226;39.702;2023-05-14T04:05:11;100941.66;;;15.71;45.22
52651;BME280;38537;47.226;39.702;2023-05-14T04:07:39;100935.22;;;15.80;45.35
52651;BME280;38537;47.226;39.702;2023-05-14T04:10:07;100925.44;;;15.77;45.68
52651;BME280;38537;47.226;39.702;2023-05-14T04:12:35;100903.25;;;15.75;45.25
52651;BME280;38537;47.226;39.702;2023-05-14T04:15:03;100929.91;;;15.95;44.85
52651;BME280;38537;47.226;39.702;2023-05-14T04:17:31;100915.50;;;15.97;45.26
52651;BME280;38537;47.226;39.702;2023-05-14T04:20:01;100929.91;;;16.04;44.90
52651;BME280;38537;47.226;39.702;2023-05-14T04:22:28;100927.59;;;16.15;44.78
52651;BME280;38537;47.226;39.702;2023-05-14T04:24:59;100923.78;;;16.19;44.56
52651;BME280;38537;47.226;39.702;2023-05-14T04:27:27;100896.59;;;16.06;44.50
52651;BME280;38537;47.226;39.702;2023-05-14T04:30:04;100890.97;;;16.06;44.47
52651;BME280;38537;47.226;39.702;2023-05-14T04:32:33;100916.81;;;16.25;44.36
52651;BME280;38537;47.226;39.702;2023-05-14T04:35:01;100927.56;;;16.40;44.04
52651;BME280;38537;47.226;39.702;2023-05-14T04:37:31;100926.72;;;16.49;43.83
52651;BME280;38537;47.226;39.702;2023-05-14T04:39:59;100907.03;;;16.40;43.84
52651;BME280;38537;47.226;39.702;2023-05-14T04:42:26;100912.78;;;16.61;43.82
52651;BME280;38537;47.226;39.702;2023-05-14T04:44:54;100909.00;;;16.65;43.77
52651;BME280;38537;47.226;39.702;2023-05-14T04:47:22;100925.31;;;16.89;43.16
52651;BME280;38537;47.226;39.702;2023-05-14T04:49:49;100911.56;;;16.88;43.03
52651;BME280;38537;47.226;39.702;2023-05-14T04:52:16;100899.41;;;16.96;43.29
52651;BME280;38537;47.226;39.702;2023-05-14T04:54:43;100892.41;;;17.02;43.39
52651;BME280;38537;47.226;39.702;2023-05-14T04:57:19;100911.59;;;17.17;43.14
52651;BME280;38537;47.226;39.702;2023-05-14T04:59:50;100848.69;;;16.87;42.92
52651;BME280;38537;47.226;39.702;2023-05-14T05:02:27;100789.72;;;16.65;42.52
52651;BME280;38537;47.226;39.702;2023-05-14T05:04:55;100848.59;;;17.04;42.51
52651;BME280;38537;47.226;39.702;2023-05-14T05:07:23;100921.97;;;17.63;42.56
52651;BME280;38537;47.226;39.702;2023-05-14T05:09:52;100857.28;;;17.20;42.10
52651;BME280;38537;47.226;39.702;2023-05-14T05:12:20;100940.22;;;17.74;41.63
52651;BME280;38537;47.226;39.702;2023-05-14T05:15:14;100942.13;;;17.83;41.58
52651;BME280;38537;47.226;39.702;2023-05-14T05:17:42;100929.13;;;17.90;41.66
52651;BME280;38537;47.226;39.702;2023-05-14T05:20:22;100911.25;;;17.77;41.46
52651;BME280;38537;47.226;39.702;2023-05-14T05:22:51;100875.63;;;17.64;41.25
52651;BME280;38537;47.226;39.702;2023-05-14T05:25:18;100874.16;;;17.58;40.80
52651;BME280;38537;47.226;39.702;2023-05-14T05:27:46;100910.72;;;17.84;40.76
52651;BME280;38537;47.226;39.702;2023-05-14T05:30:14;100837.22;;;17.42;40.43
52651;BME280;38537;47.226;39.702;2023-05-14T05:32:42;100910.16;;;17.91;40.23
52651;BME280;38537;47.226;39.702;2023-05-14T05:35:09;100849.56;;;17.59;39.93
52651;BME280;38537;47.226;39.702;2023-05-14T05:37:37;100932.91;;;18.15;39.62
52651;BME280;38537;47.226;39.702;2023-05-14T05:40:05;100931.03;;;18.19;38.99
52651;BME280;38537;47.226;39.702;2023-05-14T05:42:33;100935.09;;;18.30;39.24
52651;BME280;38537;47.226;39.702;2023-05-14T05:45:02;100941.28;;;18.44;39.21
52651;BME280;38537;47.226;39.702;2023-05-14T05:47:32;100935.91;;;18.52;39.04
52651;BME280;38537;47.226;39.702;2023-05-14T05:50:00;100912.78;;;18.49;38.94
52651;BME280;38537;47.226;39.702;2023-05-14T05:52:28;100938.09;;;18.67;39.05
52651;BME280;38537;47.226;39.702;2023-05-14T05:54:55;100904.56;;;18.57;38.30
52651;BME280;38537;47.226;39.702;2023-05-14T05:57:23;100905.31;;;18.66;38.05
52651;BME280;38537;47.226;39.702;2023-05-14T05:59:53;100910.66;;;18.79;38.28
52651;BME280;38537;47.226;39.702;2023-05-14T06:02:20;100926.13;;;18.94;37.85
52651;BME280;38537;47.226;39.702;2023-05-14T06:04:48;100905.84;;;18.92;37.77
52651;BME280;38537;47.226;39.702;2023-05-14T06:07:15;100926.88;;;19.15;37.33
52651;BME280;38537;47.226;39.702;2023-05-14T06:09:42;100905.63;;;19.09;36.53
52651;BME280;38537;47.226;39.702;2023-05-14T06:12:10;100917.94;;;19.26;36.34
52651;BME280;38537;47.226;39.702;2023-05-14T06:14:40;100918.38;;;19.28;36.67
52651;BME280;38537;47.226;39.702;2023-05-14T06:17:07;100916.03;;;19.42;36.25
52651;BME280;38537;47.226;39.702;2023-05-14T06:19:38;100925.38;;;19.55;35.84
52651;BME280;38537;47.226;39.702;2023-05-14T06:22:06;100908.47;;;19.46;35.78
52651;BME280;38537;47.226;39.702;2023-05-14T06:24:33;100915.44;;;19.61;35.42
52651;BME280;38537;47.226;39.702;2023-05-14T06:27:01;100900.00;;;19.58;35.71
52651;BME280;38537;47.226;39.702;2023-05-14T06:29:28;100914.50;;;19.69;34.99
52651;BME280;38537;47.226;39.702;2023-05-14T06:32:00;100918.84;;;19.78;34.39
52651;BME280;38537;47.226;39.702;2023-05-14T06:34:28;100905.38;;;19.75;35.03
52651;BME280;38537;47.226;39.702;2023-05-14T06:36:56;100860.22;;;19.55;35.02
52651;BME280;38537;47.226;39.702;2023-05-14T06:39:23;100928.47;;;20.02;34.38
52651;BME280;38537;47.226;39.702;2023-05-14T06:41:52;100909.16;;;19.92;33.96
52651;BME280;38537;47.226;39.702;2023-05-14T06:44:22;100920.44;;;20.04;34.36
52651;BME280;38537;47.226;39.702;2023-05-14T06:46:52;100889.97;;;20.01;34.43
52651;BME280;38537;47.226;39.702;2023-05-14T06:49:19;100913.00;;;20.11;34.58
52651;BME280;38537;47.226;39.702;2023-05-14T06:51:47;100927.22;;;20.27;34.26
52651;BME280;38537;47.226;39.702;2023-05-14T06:54:15;100927.13;;;20.24;34.68
52651;BME280;38537;47.226;39.702;2023-05-14T06:56:42;100919.53;;;20.28;34.74
52651;BME280;38537;47.226;39.702;2023-05-14T06:59:10;100931.22;;;20.38;33.52
52651;BME280;38537;47.226;39.702;2023-05-14T07:01:37;100894.38;;;20.26;33.46
52651;BME280;38537;47.226;39.702;2023-05-14T07:04:05;100904.75;;;20.34;33.35
52651;BME280;38537;47.226;39.702;2023-05-14T07:06:36;100908.72;;;20.45;32.88
52651;BME280;38537;47.226;39.702;2023-05-14T07:09:04;100919.56;;;20.56;32.92
52651;BME280;38537;47.226;39.702;2023-05-14T07:11:33;100900.44;;;20.52;32.96
52651;BME280;38537;47.226;39.702;2023-05-14T07:14:00;100912.16;;;20.67;32.56
52651;BME280;38537;47.226;39.702;2023-05-14T07:16:28;100902.38;;;20.64;32.30
52651;BME280;38537;47.226;39.702;2023-05-14T07:18:55;100904.31;;;20.76;32.19
52651;BME280;38537;47.226;39.702;2023-05-14T07:21:24;100890.41;;;20.71;31.77
52651;BME280;38537;47.226;39.702;2023-05-14T07:23:52;100893.34;;;20.74;32.16
52651;BME280;38537;47.226;39.702;2023-05-14T07:26:20;100903.56;;;20.79;31.84
52651;BME280;38537;47.226;39.702;2023-05-14T07:28:50;100899.84;;;20.91;31.53
52651;BME280;38537;47.226;39.702;2023-05-14T07:31:18;100900.56;;;20.87;30.51
52651;BME280;38537;47.226;39.702;2023-05-14T07:33:46;100904.69;;;20.90;30.55
52651;BME280;38537;47.226;39.702;2023-05-14T07:36:13;100887.66;;;20.90;31.07
52651;BME280;38537;47.226;39.702;2023-05-14T07:38:41;100905.06;;;21.04;31.01
52651;BME280;38537;47.226;39.702;2023-05-14T07:41:09;100904.44;;;21.11;31.02
52651;BME280;38537;47.226;39.702;2023-05-14T07:43:38;100891.97;;;21.00;31.19
52651;BME280;38537;47.226;39.702;2023-05-14T07:46:06;100895.91;;;21.11;31.41
52651;BME280;38537;47.226;39.702;2023-05-14T07:48:35;100903.41;;;21.03;31.20
52651;BME280;38537;47.226;39.702;2023-05-14T07:51:03;100892.72;;;20.97;32.03
52651;BME280;38537;47.226;39.702;2023-05-14T07:53:30;100896.84;;;20.99;31.87
52651;BME280;38537;47.226;39.702;2023-05-14T07:55:57;100898.91;;;21.02;32.00
52651;BME280;38537;47.226;39.702;2023-05-14T07:58:26;100868.06;;;20.85;31.92
52651;BME280;38537;47.226;39.702;2023-05-14T08:00:54;100902.78;;;21.10;31.42
52651;BME280;38537;47.226;39.702;2023-05-14T08:03:23;100885.19;;;21.04;30.75
52651;BME280;38537;47.226;39.702;2023-05-14T08:05:51;100878.31;;;21.05;30.48
52651;BME280;38537;47.226;39.702;2023-05-14T08:08:18;100889.78;;;21.25;30.31
52651;BME280;38537;47.226;39.702;2023-05-14T08:10:45;100874.19;;;21.18;30.59
52651;BME280;38537;47.226;39.702;2023-05-14T08:13:13;100869.63;;;21.14;30.28
52651;BME280;38537;47.226;39.702;2023-05-14T08:15:40;100861.66;;;21.19;29.80
52651;BME280;38537;47.226;39.702;2023-05-14T08:18:07;100869.53;;;21.26;30.19
52651;BME280;38537;47.226;39.702;2023-05-14T08:20:35;100887.81;;;21.44;30.39
52651;BME280;38537;47.226;39.702;2023-05-14T08:23:03;100873.09;;;21.39;30.93
52651;BME280;38537;47.226;39.702;2023-05-14T08:25:32;100879.84;;;21.50;30.96
52651;BME280;38537;47.226;39.702;2023-05-14T08:27:59;100891.84;;;21.59;31.12
52651;BME280;38537;47.226;39.702;2023-05-14T08:30:28;100861.97;;;21.49;30.87
52651;BME280;38537;47.226;39.702;2023-05-14T08:32:56;100860.25;;;21.45;30.79
52651;BME280;38537;47.226;39.702;2023-05-14T08:35:24;100876.00;;;21.58;30.61
52651;BME280;38537;47.226;39.702;2023-05-14T08:37:52;100881.31;;;21.60;30.28
52651;BME280;38537;47.226;39.702;2023-05-14T08:40:19;100859.88;;;21.46;30.82
52651;BME280;38537;47.226;39.702;2023-05-14T08:42:50;100882.97;;;21.61;30.42
52651;BME280;38537;47.226;39.702;2023-05-14T08:45:19;100868.19;;;21.55;30.76
52651;BME280;38537;47.226;39.702;2023-05-14T08:47:48;100864.91;;;21.53;30.09
52651;BME280;38537;47.226;39.702;2023-05-14T08:50:17;100874.81;;;21.59;29.51
52651;BME280;38537;47.226;39.702;2023-05-14T08:52:49;100836.25;;;21.42;30.05
52651;BME280;38537;47.226;39.702;2023-05-14T08:55:17;100828.84;;;21.38;30.08
52651;BME280;38537;47.226;39.702;2023-05-14T08:57:47;100871.03;;;21.55;29.62
52651;BME280;38537;47.226;39.702;2023-05-14T09:00:15;100837.00;;;21.39;29.76
52651;BME280;38537;47.226;39.702;2023-05-14T09:02:43;100848.34;;;21.39;29.67
52651;BME280;38537;47.226;39.702;2023-05-14T09:05:11;100848.44;;;21.43;29.94
52651;BME280;38537;47.226;39.702;2023-05-14T09:07:38;100819.13;;;21.39;29.80
52651;BME280;38537;47.226;39.702;2023-05-14T09:10:06;100831.53;;;21.50;30.01
52651;BME280;38537;47.226;39.702;2023-05-14T09:12:35;100835.75;;;21.56;29.76
52651;BME280;38537;47.226;39.702;2023-05-14T09:15:02;100892.41;;;21.49;30.72
52651;BME280;38537;47.226;39.702;2023-05-14T09:17:32;100854.03;;;21.24;31.30
52651;BME280;38537;47.226;39.702;2023-05-14T09:20:00;100852.94;;;21.12;32.05
52651;BME280;38537;47.226;39.702;2023-05-14T09:22:30;100842.22;;;20.90;32.32
52651;BME280;38537;47.226;39.702;2023-05-14T09:25:05;100854.31;;;20.87;32.98
52651;BME280;38537;47.226;39.702;2023-05-14T09:27:33;100843.03;;;20.59;34.61
52651;BME280;38537;47.226;39.702;2023-05-14T09:30:11;100862.19;;;20.34;36.17
52651;BME280;38537;47.226;39.702;2023-05-14T09:32:42;100868.63;;;20.19;36.77
52651;BME280;38537;47.226;39.702;2023-05-14T09:35:24;100887.34;;;20.08;35.34
52651;BME280;38537;47.226;39.702;2023-05-14T09:37:53;100863.06;;;19.95;33.31
52651;BME280;38537;47.226;39.702;2023-05-14T09:40:22;100876.94;;;20.12;33.61
52651;BME280;38537;47.226;39.702;2023-05-14T09:42:51;100887.13;;;20.13;32.45
52651;BME280;38537;47.226;39.702;2023-05-14T09:45:18;100868.13;;;20.01;31.75
52651;BME280;38537;47.226;39.702;2023-05-14T09:47:46;100844.25;;;20.02;31.83
52651;BME280;38537;47.226;39.702;2023-05-14T09:50:14;100846.66;;;20.16;31.51
52651;BME280;38537;47.226;39.702;2023-05-14T09:52:42;100831.66;;;20.15;31.83
52651;BME280;38537;47.226;39.702;2023-05-14T09:55:09;100852.97;;;20.37;31.66
52651;BME280;38537;47.226;39.702;2023-05-14T09:57:36;100852.03;;;20.33;31.91
52651;BME280;38537;47.226;39.702;2023-05-14T10:00:08;100822.03;;;20.32;31.06
52651;BME280;38537;47.226;39.702;2023-05-14T10:02:36;100835.16;;;20.52;31.08
52651;BME280;38537;47.226;39.702;2023-05-14T10:05:05;100820.97;;;20.52;30.80
52651;BME280;38537;47.226;39.702;2023-05-14T10:07:47;100838.69;;;20.77;30.41
52651;BME280;38537;47.226;39.702;2023-05-14T10:10:18;100838.47;;;20.86;30.59
52651;BME280;38537;47.226;39.702;2023-05-14T10:12:56;100826.13;;;20.94;31.25
52651;BME280;38537;47.226;39.702;2023-05-14T10:18:19;100814.66;;;20.91;31.44
52651;BME280;38537;47.226;39.702;2023-05-14T10:21:02;100802.59;;;20.94;31.58
52651;BME280;38537;47.226;39.702;2023-05-14T10:23:30;100810.72;;;20.95;31.59
52651;BME280;38537;47.226;39.702;2023-05-14T10:25:58;100816.28;;;21.07;30.92
52651;BME280;38537;47.226;39.702;2023-05-14T10:28:27;100822.16;;;21.14;31.17
52651;BME280;38537;47.226;39.702;2023-05-14T10:30:54;100829.25;;;21.20;31.42
52651;BME280;38537;47.226;39.702;2023-05-14T10:33:21;100831.69;;;21.22;31.15
52651;BME280;38537;47.226;39.702;2023-05-14T10:38:28;100829.13;;;21.33;31.23
52651;BME280;38537;47.226;39.702;2023-05-14T10:41:00;100801.66;;;21.21;30.81
52651;BME280;38537;47.226;39.702;2023-05-14T10:43:29;100818.66;;;21.37;30.47
52651;BME280;38537;47.226;39.702;2023-05-14T10:45:58;100808.13;;;21.37;30.50
52651;BME280;38537;47.226;39.702;2023-05-14T10:48:26;100801.38;;;21.45;31.08
52651;BME280;38537;47.226;39.702;2023-05-14T10:50:55;100810.34;;;21.63;31.75
52651;BME280;38537;47.226;39.702;2023-05-14T10:53:45;100819.38;;;21.88;32.29
52651;BME280;38537;47.226;39.702;2023-05-14T10:56:13;100823.66;;;21.98;32.49
52651;BME280;38537;47.226;39.702;2023-05-14T10:58:42;100832.47;;;22.08;32.77
52651;BME280;38537;47.226;39.702;2023-05-14T11:01:11;100812.03;;;22.03;32.90
52651;BME280;38537;47.226;39.702;2023-05-14T11:03:44;100816.72;;;22.14;33.05
52651;BME280;38537;47.226;39.702;2023-05-14T11:06:13;100828.31;;;22.25;33.02
52651;BME280;38537;47.226;39.702;2023-05-14T11:08:42;100823.00;;;22.23;33.10
52651;BME280;38537;47.226;39.702;2023-05-14T11:11:11;100826.78;;;22.31;33.21
52651;BME280;38537;47.226;39.702;2023-05-14T11:13:40;100808.56;;;22.13;33.44
52651;BME280;38537;47.226;39.702;2023-05-14T11:16:08;100826.59;;;22.20;33.62
52651;BME280;38537;47.226;39.702;2023-05-14T11:18:59;100837.06;;;22.36;33.77
52651;BME280;38537;47.226;39.702;2023-05-14T11:21:29;100842.75;;;22.36;33.94
52651;BME280;38537;47.226;39.702;2023-05-14T11:23:59;100817.06;;;22.32;33.86
52651;BME280;38537;47.226;39.702;2023-05-14T11:26:27;100826.78;;;22.50;34.05
52651;BME280;38537;47.226;39.702;2023-05-14T11:28:54;100826.44;;;22.55;34.08
52651;BME280;38537;47.226;39.702;2023-05-14T11:31:21;100817.66;;;22.64;34.03
52651;BME280;38537;47.226;39.702;2023-05-14T11:33:51;100842.38;;;22.79;34.10
52651;BME280;38537;47.226;39.702;2023-05-14T11:36:19;100823.25;;;22.80;34.08
52651;BME280;38537;47.226;39.702;2023-05-14T11:38:50;100841.81;;;22.93;33.98
52651;BME280;38537;47.226;39.702;2023-05-14T11:41:18;100825.34;;;22.83;34.09
52651;BME280;38537;47.226;39.702;2023-05-14T11:43:49;100839.72;;;22.90;34.07
52651;BME280;38537;47.226;39.702;2023-05-14T11:46:17;100839.34;;;22.92;34.26
52651;BME280;38537;47.226;39.702;2023-05-14T11:48:44;100825.34;;;22.83;34.12
52651;BME280;38537;47.226;39.702;2023-05-14T11:51:12;100812.31;;;22.82;34.24
52651;BME280;38537;47.226;39.702;2023-05-14T11:53:39;100830.97;;;23.02;34.18
52651;BME280;38537;47.226;39.702;2023-05-14T11:56:07;100804.66;;;22.86;34.07
52651;BME280;38537;47.226;39.702;2023-05-14T11:58:36;100823.63;;;23.01;33.90
52651;BME280;38537;47.226;39.702;2023-05-14T12:01:03;100824.91;;;23.04;34.04
52651;BME280;38537;47.226;39.702;2023-05-14T12:03:30;100800.00;;;23.01;34.04
52651;BME280;38537;47.226;39.702;2023-05-14T12:06:00;100821.66;;;23.05;34.17
52651;BME280;38537;47.226;39.702;2023-05-14T12:08:30;100829.53;;;22.89;34.36
52651;BME280;38537;47.226;39.702;2023-05-14T12:10:58;100810.88;;;22.92;34.53
52651;BME280;38537;47.226;39.702;2023-05-14T12:13:30;100797.00;;;22.90;34.84
52651;BME280;38537;47.226;39.702;2023-05-14T12:15:59;100816.72;;;23.02;34.94
52651;BME280;38537;47.226;39.702;2023-05-14T12:18:30;100847.81;;;23.11;34.25
52651;BME280;38537;47.226;39.702;2023-05-14T12:21:02;100882.03;;;22.69;34.29
52651;BME280;38537;47.226;39.702;2023-05-14T12:23:31;100890.25;;;21.97;35.92
52651;BME280;38537;47.226;39.702;2023-05-14T12:26:05;100871.09;;;21.39;36.49
52651;BME280;38537;47.226;39.702;2023-05-14T12:28:33;100869.44;;;21.23;36.99
52651;BME280;38537;47.226;39.702;2023-05-14T12:31:03;100823.34;;;20.82;37.40
52651;BME280;38537;47.226;39.702;2023-05-14T12:33:31;100839.03;;;20.76;37.36
52651;BME280;38537;47.226;39.702;2023-05-14T12:35:59;100844.63;;;20.88;37.49
52651;BME280;38537;47.226;39.702;2023-05-14T12:38:56;100827.31;;;20.93;37.43
52651;BME280;38537;47.226;39.702;2023-05-14T12:41:27;100807.34;;;20.90;37.35
52651;BME280;38537;47.226;39.702;2023-05-14T12:43:54;100800.09;;;20.92;37.28
52651;BME280;38537;47.226;39.702;2023-05-14T12:46:22;100822.19;;;20.99;36.90
52651;BME280;38537;47.226;39.702;2023-05-14T12:48:50;100817.03;;;20.88;37.30
52651;BME280;38537;47.226;39.702;2023-05-14T12:51:19;100803.50;;;20.66;37.03
52651;BME280;38537;47.226;39.702;2023-05-14T12:53:47;100762.19;;;20.37;37.50
52651;BME280;38537;47.226;39.702;2023-05-14T12:56:15;100815.88;;;20.74;37.20